sensor_id;sensor_type;location;lat;lon;timestamp;P1;durP1;ratioP1;P2;durP2;ratioP2
7142;SDS011;3613;48.902;9.204;2023-08-06T00:00:15;8.80;;;7.10;;
7142;SDS011;3613;48.902;9.204;2023-08-06T00:02:41;9.90;;;7.20;;
7142;SDS011;3613;48.902;9.204;2023-08-06T00:05:07;9.73;;;7.40;;
7142;SDS011;3613;48.902;9.204;2023-08-06T00:07:33;10.07;;;7.20;;
7142;SDS011;3613;48.902;9.204;2023-08-06T00:10:01;12.83;;;7.40;;
7142;SDS011;3613;48.902;9.204;2023-08-06T00:12:29;11.80;;;6.97;;
7142;SDS011;3613;48.902;9.204;2023-08-06T00:14:57;10.73;;;7.00;;
7142;SDS011;3613;48.902;9.204;2023-08-06T00:17:23;13.50;;;7.67;;
7142;SDS011;3613;48.902;9.204;2023-08-06T00:19:49;11.70;;;7.70;;
7142;SDS011;3613;48.902;9.204;2023-08-06T00:22:15;14.30;;;8.53;;
7142;SDS011;3613;48.902;9.204;2023-08-06T00:24:43;16.37;;;8.60;;
7142;SDS011;3613;48.902;9.204;2023-08-06T00:27:09;12.37;;;7.83;;
7142;SDS011;3613;48.902;9.204;2023-08-06T00:29:37;13.00;;;7.70;;
7142;SDS011;3613;48.902;9.204;2023-08-06T00:32:03;12.20;;;8.70;;
7142;SDS011;3613;48.902;9.204;2023-08-06T00:34:29;13.77;;;8.27;;
7142;SDS011;3613;48.902;9.204;2023-08-06T00:36:57;11.20;;;8.20;;
7142;SDS011;3613;48.902;9.204;2023-08-06T00:39:23;11.20;;;7.90;;
7142;SDS011;3613;48.902;9.204;2023-08-06T00:41:49;14.47;;;9.47;;
7142;SDS011;3613;48.902;9.204;2023-08-06T00:44:14;13.37;;;8.73;;
7142;SDS011;3613;48.902;9.204;2023-08-06T00:46:40;13.80;;;9.63;;
7142;SDS011;3613;48.902;9.204;2023-08-06T00:49:08;14.83;;;9.87;;
7142;SDS011;3613;48.902;9.204;2023-08-06T00:51:34;16.37;;;10.50;;
7142;SDS011;3613;48.902;9.204;2023-08-06T00:54:00;18.83;;;11.47;;
7142;SDS011;3613;48.902;9.204;2023-08-06T00:56:27;19.03;;;11.30;;
7142;SDS011;3613;48.902;9.204;2023-08-06T00:58:53;19.20;;;11.50;;
7142;SDS011;3613;48.902;9.204;2023-08-06T01:01:20;18.93;;;11.27;;
7142;SDS011;3613;48.902;9.204;2023-08-06T01:03:46;17.50;;;11.20;;
7142;SDS011;3613;48.902;9.204;2023-08-06T01:06:14;23.23;;;12.17;;
7142;SDS011;3613;48.902;9.204;2023-08-06T01:16:53;19.50;;;12.50;;
7142;SDS011;3613;48.902;9.204;2023-08-06T01:19:20;16.10;;;10.77;;
7142;SDS011;3613;48.902;9.204;2023-08-06T01:21:46;16.37;;;10.97;;
7142;SDS011;3613;48.902;9.204;2023-08-06T01:24:14;20.33;;;11.60;;
7142;SDS011;3613;48.902;9.204;2023-08-06T01:26:48;18.73;;;11.13;;
7142;SDS011;3613;48.902;9.204;2023-08-06T01:29:25;21.57;;;11.70;;
7142;SDS011;3613;48.902;9.204;2023-08-06T01:31:56;19.57;;;12.17;;
7142;SDS011;3613;48.902;9.204;2023-08-06T01:34:24;17.87;;;12.57;;
7142;SDS011;3613;48.902;9.204;2023-08-06T01:36:55;18.33;;;12.00;;
7142;SDS011;3613;48.902;9.204;2023-08-06T01:39:21;23.33;;;13.20;;
7142;SDS011;3613;48.902;9.204;2023-08-06T01:41:50;19.03;;;12.57;;
7142;SDS011;3613;48.902;9.204;2023-08-06T01:44:16;26.33;;;15.00;;
7142;SDS011;3613;48.902;9.204;2023-08-06T01:46:44;23.40;;;14.33;;
7142;SDS011;3613;48.902;9.204;2023-08-06T01:49:10;26.17;;;14.53;;
7142;SDS011;3613;48.902;9.204;2023-08-06T01:51:38;28.83;;;16.13;;
7142;SDS011;3613;48.902;9.204;2023-08-06T01:54:06;23.23;;;14.87;;
7142;SDS011;3613;48.902;9.204;2023-08-06T01:56:32;24.40;;;14.40;;
7142;SDS011;3613;48.902;9.204;2023-08-06T01:58:58;25.80;;;15.57;;
7142;SDS011;3613;48.902;9.204;2023-08-06T02:01:23;22.53;;;14.73;;
7142;SDS011;3613;48.902;9.204;2023-08-06T02:03:49;22.83;;;14.43;;
7142;SDS011;3613;48.902;9.204;2023-08-06T02:06:15;22.93;;;14.30;;
7142;SDS011;3613;48.902;9.204;2023-08-06T02:08:41;22.13;;;13.10;;
7142;SDS011;3613;48.902;9.204;2023-08-06T02:11:07;20.03;;;12.80;;
7142;SDS011;3613;48.902;9.204;2023-08-06T02:13:33;19.67;;;12.87;;
7142;SDS011;3613;48.902;9.204;2023-08-06T02:15:59;21.20;;;11.77;;
7142;SDS011;3613;48.902;9.204;2023-08-06T02:18:29;14.00;;;9.90;;
7142;SDS011;3613;48.902;9.204;2023-08-06T02:20:58;17.07;;;10.77;;
7142;SDS011;3613;48.902;9.204;2023-08-06T02:23:27;14.47;;;10.27;;
7142;SDS011;3613;48.902;9.204;2023-08-06T02:26:02;12.97;;;9.33;;
7142;SDS011;3613;48.902;9.204;2023-08-06T02:28:28;15.57;;;9.93;;
7142;SDS011;3613;48.902;9.204;2023-08-06T02:30:54;15.00;;;9.00;;
7142;SDS011;3613;48.902;9.204;2023-08-06T02:33:23;12.80;;;8.17;;
7142;SDS011;3613;48.902;9.204;2023-08-06T02:35:51;9.67;;;6.97;;
7142;SDS011;3613;48.902;9.204;2023-08-06T02:38:26;14.03;;;7.33;;
7142;SDS011;3613;48.902;9.204;2023-08-06T02:40:57;9.80;;;6.90;;
7142;SDS011;3613;48.902;9.204;2023-08-06T02:43:22;11.77;;;6.60;;
7142;SDS011;3613;48.902;9.204;2023-08-06T02:45:51;11.10;;;6.90;;
7142;SDS011;3613;48.902;9.204;2023-08-06T02:48:19;10.43;;;6.03;;
7142;SDS011;3613;48.902;9.204;2023-08-06T02:50:47;9.27;;;6.53;;
7142;SDS011;3613;48.902;9.204;2023-08-06T02:53:15;11.07;;;6.43;;
7142;SDS011;3613;48.902;9.204;2023-08-06T02:55:45;8.77;;;6.37;;
7142;SDS011;3613;48.902;9.204;2023-08-06T02:58:12;9.03;;;6.57;;
7142;SDS011;3613;48.902;9.204;2023-08-06T03:00:42;8.63;;;6.07;;
7142;SDS011;3613;48.902;9.204;2023-08-06T03:03:10;8.87;;;6.90;;
7142;SDS011;3613;48.902;9.204;2023-08-06T03:05:36;11.97;;;6.20;;
7142;SDS011;3613;48.902;9.204;2023-08-06T03:08:01;9.63;;;6.00;;
7142;SDS011;3613;48.902;9.204;2023-08-06T03:10:27;9.27;;;5.93;;
7142;SDS011;3613;48.902;9.204;2023-08-06T03:12:53;9.70;;;6.63;;
7142;SDS011;3613;48.902;9.204;2023-08-06T03:15:19;10.60;;;6.37;;
7142;SDS011;3613;48.902;9.204;2023-08-06T03:17:45;10.80;;;6.80;;
7142;SDS011;3613;48.902;9.204;2023-08-06T03:20:13;9.23;;;6.57;;
7142;SDS011;3613;48.902;9.204;2023-08-06T03:22:39;9.53;;;6.73;;
7142;SDS011;3613;48.902;9.204;2023-08-06T03:25:05;11.43;;;7.67;;
7142;SDS011;3613;48.902;9.204;2023-08-06T03:27:31;11.87;;;8.33;;
7142;SDS011;3613;48.902;9.204;2023-08-06T03:29:57;9.37;;;7.47;;
7142;SDS011;3613;48.902;9.204;2023-08-06T03:32:22;15.53;;;7.63;;
7142;SDS011;3613;48.902;9.204;2023-08-06T03:34:48;13.90;;;8.17;;
7142;SDS011;3613;48.902;9.204;2023-08-06T03:37:14;10.57;;;7.57;;
7142;SDS011;3613;48.902;9.204;2023-08-06T03:39:40;12.47;;;6.90;;
7142;SDS011;3613;48.902;9.204;2023-08-06T03:42:06;11.40;;;7.07;;
7142;SDS011;3613;48.902;9.204;2023-08-06T03:44:31;8.67;;;5.77;;
7142;SDS011;3613;48.902;9.204;2023-08-06T03:46:59;10.30;;;7.30;;
7142;SDS011;3613;48.902;9.204;2023-08-06T03:49:27;10.63;;;7.07;;
7142;SDS011;3613;48.902;9.204;2023-08-06T03:51:59;10.23;;;6.50;;
7142;SDS011;3613;48.902;9.204;2023-08-06T03:54:25;11.50;;;6.70;;
7142;SDS011;3613;48.902;9.204;2023-08-06T03:56:51;9.30;;;6.10;;
7142;SDS011;3613;48.902;9.204;2023-08-06T03:59:17;8.50;;;6.10;;
7142;SDS011;3613;48.902;9.204;2023-08-06T04:01:42;14.23;;;6.40;;
7142;SDS011;3613;48.902;9.204;2023-08-06T04:04:08;8.83;;;6.13;;
7142;SDS011;3613;48.902;9.204;2023-08-06T04:06:34;12.23;;;8.50;;
7142;SDS011;3613;48.902;9.204;2023-08-06T04:09:00;8.80;;;6.20;;
7142;SDS011;3613;48.902;9.204;2023-08-06T04:11:28;8.33;;;6.00;;
7142;SDS011;3613;48.902;9.204;2023-08-06T04:13:54;10.83;;;6.63;;
7142;SDS011;3613;48.902;9.204;2023-08-06T04:16:20;9.80;;;5.97;;
7142;SDS011;3613;48.902;9.204;2023-08-06T04:18:53;7.37;;;6.13;;
7142;SDS011;3613;48.902;9.204;2023-08-06T04:21:20;8.27;;;6.10;;
7142;SDS011;3613;48.902;9.204;2023-08-06T04:23:46;9.33;;;5.93;;
7142;SDS011;3613;48.902;9.204;2023-08-06T04:26:14;10.27;;;5.73;;
7142;SDS011;3613;48.902;9.204;2023-08-06T04:28:42;8.33;;;6.40;;
7142;SDS011;3613;48.902;9.204;2023-08-06T04:31:08;9.47;;;6.07;;
7142;SDS011;3613;48.902;9.204;2023-08-06T04:33:33;7.40;;;5.47;;
7142;SDS011;3613;48.902;9.204;2023-08-06T04:36:02;7.73;;;5.63;;
7142;SDS011;3613;48.902;9.204;2023-08-06T04:38:27;6.50;;;4.97;;
7142;SDS011;3613;48.902;9.204;2023-08-06T04:40:56;7.20;;;5.30;;
7142;SDS011;3613;48.902;9.204;2023-08-06T04:43:22;8.30;;;5.10;;
7142;SDS011;3613;48.902;9.204;2023-08-06T04:45:51;6.53;;;5.33;;
7142;SDS011;3613;48.902;9.204;2023-08-06T04:48:19;10.40;;;5.70;;
7142;SDS011;3613;48.902;9.204;2023-08-06T04:50:46;8.07;;;6.30;;
7142;SDS011;3613;48.902;9.204;2023-08-06T04:53:12;7.40;;;5.77;;
7142;SDS011;3613;48.902;9.204;2023-08-06T04:55:38;9.63;;;5.53;;
7142;SDS011;3613;48.902;9.204;2023-08-06T04:58:04;7.67;;;5.40;;
7142;SDS011;3613;48.902;9.204;2023-08-06T05:00:30;7.73;;;5.20;;
7142;SDS011;3613;48.902;9.204;2023-08-06T05:03:01;7.80;;;5.03;;
7142;SDS011;3613;48.902;9.204;2023-08-06T05:05:27;7.73;;;4.73;;
7142;SDS011;3613;48.902;9.204;2023-08-06T05:07:54;9.87;;;5.77;;
7142;SDS011;3613;48.902;9.204;2023-08-06T05:10:25;14.47;;;5.27;;
7142;SDS011;3613;48.902;9.204;2023-08-06T05:12:52;7.67;;;4.60;;
7142;SDS011;3613;48.902;9.204;2023-08-06T05:15:18;17.97;;;10.17;;
7142;SDS011;3613;48.902;9.204;2023-08-06T05:17:46;15.37;;;9.80;;
7142;SDS011;3613;48.902;9.204;2023-08-06T05:20:12;26.27;;;14.93;;
7142;SDS011;3613;48.902;9.204;2023-08-06T05:22:38;13.67;;;9.37;;
7142;SDS011;3613;48.902;9.204;2023-08-06T05:25:06;8.30;;;5.33;;
7142;SDS011;3613;48.902;9.204;2023-08-06T05:27:31;5.97;;;4.70;;
7142;SDS011;3613;48.902;9.204;2023-08-06T05:30:02;8.77;;;4.33;;
7142;SDS011;3613;48.902;9.204;2023-08-06T05:32:28;6.87;;;4.13;;
7142;SDS011;3613;48.902;9.204;2023-08-06T05:34:54;6.50;;;3.90;;
7142;SDS011;3613;48.902;9.204;2023-08-06T05:37:19;6.17;;;4.00;;
7142;SDS011;3613;48.902;9.204;2023-08-06T05:39:45;6.70;;;3.90;;
7142;SDS011;3613;48.902;9.204;2023-08-06T05:42:11;5.83;;;3.90;;
7142;SDS011;3613;48.902;9.204;2023-08-06T05:44:37;7.70;;;3.70;;
7142;SDS011;3613;48.902;9.204;2023-08-06T05:47:02;5.93;;;3.10;;
7142;SDS011;3613;48.902;9.204;2023-08-06T05:49:29;4.40;;;3.13;;
7142;SDS011;3613;48.902;9.204;2023-08-06T05:51:54;4.20;;;2.60;;
7142;SDS011;3613;48.902;9.204;2023-08-06T05:54:21;5.50;;;2.30;;
7142;SDS011;3613;48.902;9.204;2023-08-06T05:56:47;3.80;;;2.50;;
7142;SDS011;3613;48.902;9.204;2023-08-06T05:59:13;3.07;;;1.93;;
7142;SDS011;3613;48.902;9.204;2023-08-06T06:01:41;3.57;;;2.40;;
7142;SDS011;3613;48.902;9.204;2023-08-06T06:04:07;3.07;;;2.20;;
7142;SDS011;3613;48.902;9.204;2023-08-06T06:06:34;2.50;;;2.00;;
7142;SDS011;3613;48.902;9.204;2023-08-06T06:09:00;3.30;;;2.10;;
7142;SDS011;3613;48.902;9.204;2023-08-06T06:11:26;3.77;;;2.47;;
7142;SDS011;3613;48.902;9.204;2023-08-06T06:13:52;5.27;;;2.20;;
7142;SDS011;3613;48.902;9.204;2023-08-06T06:16:18;3.77;;;2.60;;
7142;SDS011;3613;48.902;9.204;2023-08-06T06:18:44;4.10;;;2.23;;
7142;SDS011;3613;48.902;9.204;2023-08-06T06:21:10;5.00;;;2.37;;
7142;SDS011;3613;48.902;9.204;2023-08-06T06:23:36;3.63;;;2.00;;
7142;SDS011;3613;48.902;9.204;2023-08-06T06:26:02;2.53;;;1.53;;
7142;SDS011;3613;48.902;9.204;2023-08-06T06:28:30;3.87;;;1.93;;
7142;SDS011;3613;48.902;9.204;2023-08-06T06:31:02;3.83;;;1.80;;
7142;SDS011;3613;48.902;9.204;2023-08-06T06:33:28;2.00;;;1.53;;
7142;SDS011;3613;48.902;9.204;2023-08-06T06:35:54;2.83;;;1.70;;
7142;SDS011;3613;48.902;9.204;2023-08-06T06:38:23;3.93;;;1.97;;
7142;SDS011;3613;48.902;9.204;2023-08-06T06:40:56;1.47;;;1.37;;
7142;SDS011;3613;48.902;9.204;2023-08-06T06:43:22;2.70;;;1.27;;
7142;SDS011;3613;48.902;9.204;2023-08-06T06:45:52;2.07;;;1.20;;
7142;SDS011;3613;48.902;9.204;2023-08-06T06:48:20;3.10;;;1.20;;
7142;SDS011;3613;48.902;9.204;2023-08-06T06:50:47;2.10;;;1.20;;
7142;SDS011;3613;48.902;9.204;2023-08-06T06:53:13;4.17;;;1.40;;
7142;SDS011;3613;48.902;9.204;2023-08-06T06:55:39;2.53;;;1.40;;
7142;SDS011;3613;48.902;9.204;2023-08-06T06:58:05;1.60;;;1.50;;
7142;SDS011;3613;48.902;9.204;2023-08-06T07:00:35;3.40;;;1.40;;
7142;SDS011;3613;48.902;9.204;2023-08-06T07:03:02;1.70;;;1.30;;
7142;SDS011;3613;48.902;9.204;2023-08-06T07:05:27;4.13;;;1.53;;
7142;SDS011;3613;48.902;9.204;2023-08-06T07:07:56;1.77;;;1.10;;
7142;SDS011;3613;48.902;9.204;2023-08-06T07:10:22;3.30;;;1.30;;
7142;SDS011;3613;48.902;9.204;2023-08-06T07:12:48;1.83;;;1.07;;
7142;SDS011;3613;48.902;9.204;2023-08-06T07:15:16;1.77;;;1.10;;
7142;SDS011;3613;48.902;9.204;2023-08-06T07:17:42;1.60;;;1.23;;
7142;SDS011;3613;48.902;9.204;2023-08-06T07:20:08;2.47;;;1.80;;
7142;SDS011;3613;48.902;9.204;2023-08-06T07:22:35;2.33;;;1.00;;
7142;SDS011;3613;48.902;9.204;2023-08-06T07:25:03;0.83;;;0.83;;
7142;SDS011;3613;48.902;9.204;2023-08-06T07:27:32;1.27;;;0.90;;
7142;SDS011;3613;48.902;9.204;2023-08-06T07:30:00;1.27;;;0.73;;
7142;SDS011;3613;48.902;9.204;2023-08-06T07:32:26;1.53;;;0.80;;
7142;SDS011;3613;48.902;9.204;2023-08-06T07:34:53;0.70;;;0.60;;
7142;SDS011;3613;48.902;9.204;2023-08-06T07:37:24;0.90;;;0.83;;
7142;SDS011;3613;48.902;9.204;2023-08-06T07:39:50;1.20;;;0.87;;
7142;SDS011;3613;48.902;9.204;2023-08-06T07:42:16;1.70;;;0.90;;
7142;SDS011;3613;48.902;9.204;2023-08-06T07:44:47;1.23;;;0.90;;
7142;SDS011;3613;48.902;9.204;2023-08-06T07:47:15;1.93;;;0.73;;
7142;SDS011;3613;48.902;9.204;2023-08-06T07:49:41;2.23;;;0.80;;
7142;SDS011;3613;48.902;9.204;2023-08-06T07:52:07;1.63;;;1.00;;
7142;SDS011;3613;48.902;9.204;2023-08-06T07:54:36;1.33;;;0.70;;
7142;SDS011;3613;48.902;9.204;2023-08-06T07:57:02;1.43;;;1.10;;
7142;SDS011;3613;48.902;9.204;2023-08-06T07:59:28;0.70;;;0.70;;
7142;SDS011;3613;48.902;9.204;2023-08-06T08:01:58;0.77;;;0.70;;
7142;SDS011;3613;48.902;9.204;2023-08-06T08:04:26;1.10;;;0.90;;
7142;SDS011;3613;48.902;9.204;2023-08-06T08:06:52;0.60;;;0.60;;
7142;SDS011;3613;48.902;9.204;2023-08-06T08:09:18;0.93;;;0.50;;
7142;SDS011;3613;48.902;9.204;2023-08-06T08:11:44;0.50;;;0.50;;
7142;SDS011;3613;48.902;9.204;2023-08-06T08:14:10;1.83;;;1.30;;
7142;SDS011;3613;48.902;9.204;2023-08-06T08:16:36;0.70;;;0.70;;
7142;SDS011;3613;48.902;9.204;2023-08-06T08:19:07;1.60;;;0.90;;
7142;SDS011;3613;48.902;9.204;2023-08-06T08:21:33;1.50;;;0.80;;
7142;SDS011;3613;48.902;9.204;2023-08-06T08:23:59;1.03;;;0.80;;
7142;SDS011;3613;48.902;9.204;2023-08-06T08:26:26;1.43;;;0.50;;
7142;SDS011;3613;48.902;9.204;2023-08-06T08:28:55;1.63;;;0.70;;
7142;SDS011;3613;48.902;9.204;2023-08-06T08:31:24;0.60;;;0.60;;
7142;SDS011;3613;48.902;9.204;2023-08-06T08:33:53;0.67;;;0.67;;
7142;SDS011;3613;48.902;9.204;2023-08-06T08:36:19;0.77;;;0.50;;
7142;SDS011;3613;48.902;9.204;2023-08-06T08:38:45;0.77;;;0.70;;
7142;SDS011;3613;48.902;9.204;2023-08-06T08:41:11;3.90;;;1.20;;
7142;SDS011;3613;48.902;9.204;2023-08-06T08:43:37;2.47;;;0.80;;
7142;SDS011;3613;48.902;9.204;2023-08-06T08:46:04;0.70;;;0.67;;
7142;SDS011;3613;48.902;9.204;2023-08-06T08:48:32;0.70;;;0.63;;
7142;SDS011;3613;48.902;9.204;2023-08-06T08:51:00;0.60;;;0.40;;
7142;SDS011;3613;48.902;9.204;2023-08-06T08:53:27;0.97;;;0.90;;
7142;SDS011;3613;48.902;9.204;2023-08-06T08:55:54;1.23;;;0.70;;
7142;SDS011;3613;48.902;9.204;2023-08-06T08:58:20;1.17;;;0.70;;
7142;SDS011;3613;48.902;9.204;2023-08-06T09:00:49;0.50;;;0.50;;
7142;SDS011;3613;48.902;9.204;2023-08-06T09:03:17;1.30;;;0.60;;
7142;SDS011;3613;48.902;9.204;2023-08-06T09:05:44;2.80;;;0.80;;
7142;SDS011;3613;48.902;9.204;2023-08-06T09:08:11;0.67;;;0.67;;
7142;SDS011;3613;48.902;9.204;2023-08-06T09:10:40;1.80;;;0.67;;
7142;SDS011;3613;48.902;9.204;2023-08-06T09:13:06;1.60;;;1.03;;
7142;SDS011;3613;48.902;9.204;2023-08-06T09:15:33;0.80;;;0.80;;
7142;SDS011;3613;48.902;9.204;2023-08-06T09:17:59;0.90;;;0.47;;
7142;SDS011;3613;48.902;9.204;2023-08-06T09:20:25;0.70;;;0.70;;
7142;SDS011;3613;48.902;9.204;2023-08-06T09:22:54;2.43;;;0.80;;
7142;SDS011;3613;48.902;9.204;2023-08-06T09:25:21;0.80;;;0.80;;
7142;SDS011;3613;48.902;9.204;2023-08-06T09:27:49;2.20;;;0.93;;
7142;SDS011;3613;48.902;9.204;2023-08-06T09:30:28;0.80;;;0.80;;
7142;SDS011;3613;48.902;9.204;2023-08-06T09:32:56;0.70;;;0.70;;
7142;SDS011;3613;48.902;9.204;2023-08-06T09:35:22;1.07;;;0.97;;
7142;SDS011;3613;48.902;9.204;2023-08-06T09:37:50;2.13;;;0.77;;
7142;SDS011;3613;48.902;9.204;2023-08-06T09:40:36;0.50;;;0.50;;
7142;SDS011;3613;48.902;9.204;2023-08-06T09:43:05;0.80;;;0.80;;
7142;SDS011;3613;48.902;9.204;2023-08-06T09:45:38;0.70;;;0.70;;
7142;SDS011;3613;48.902;9.204;2023-08-06T09:48:04;0.90;;;0.70;;
7142;SDS011;3613;48.902;9.204;2023-08-06T09:50:31;0.60;;;0.60;;
7142;SDS011;3613;48.902;9.204;2023-08-06T09:52:58;0.57;;;0.57;;
7142;SDS011;3613;48.902;9.204;2023-08-06T09:55:24;0.70;;;0.70;;
7142;SDS011;3613;48.902;9.204;2023-08-06T09:57:51;2.00;;;0.70;;
7142;SDS011;3613;48.902;9.204;2023-08-06T10:00:18;2.60;;;0.90;;
7142;SDS011;3613;48.902;9.204;2023-08-06T10:02:46;0.70;;;0.70;;
7142;SDS011;3613;48.902;9.204;2023-08-06T10:05:14;0.77;;;0.67;;
7142;SDS011;3613;48.902;9.204;2023-08-06T10:07:41;0.70;;;0.70;;
7142;SDS011;3613;48.902;9.204;2023-08-06T10:10:08;1.43;;;0.90;;
7142;SDS011;3613;48.902;9.204;2023-08-06T10:12:36;0.87;;;0.67;;
7142;SDS011;3613;48.902;9.204;2023-08-06T10:15:09;1.03;;;0.87;;
7142;SDS011;3613;48.902;9.204;2023-08-06T10:17:35;0.70;;;0.60;;
7142;SDS011;3613;48.902;9.204;2023-08-06T10:20:05;0.60;;;0.60;;
7142;SDS011;3613;48.902;9.204;2023-08-06T10:22:35;0.40;;;0.40;;
7142;SDS011;3613;48.902;9.204;2023-08-06T10:25:01;0.70;;;0.70;;
7142;SDS011;3613;48.902;9.204;2023-08-06T10:32:50;0.60;;;0.60;;
7142;SDS011;3613;48.902;9.204;2023-08-06T10:38:05;0.73;;;0.70;;
7142;SDS011;3613;48.902;9.204;2023-08-06T10:40:32;0.50;;;0.50;;
7142;SDS011;3613;48.902;9.204;2023-08-06T10:42:59;1.50;;;0.70;;
7142;SDS011;3613;48.902;9.204;2023-08-06T10:45:25;0.60;;;0.60;;
7142;SDS011;3613;48.902;9.204;2023-08-06T10:47:53;0.60;;;0.60;;
7142;SDS011;3613;48.902;9.204;2023-08-06T10:50:21;0.60;;;0.60;;
7142;SDS011;3613;48.902;9.204;2023-08-06T10:52:47;0.87;;;0.67;;
7142;SDS011;3613;48.902;9.204;2023-08-06T10:55:13;0.80;;;0.70;;
7142;SDS011;3613;48.902;9.204;2023-08-06T10:57:39;0.70;;;0.70;;
7142;SDS011;3613;48.902;9.204;2023-08-06T11:00:06;0.57;;;0.57;;
7142;SDS011;3613;48.902;9.204;2023-08-06T11:02:36;0.80;;;0.80;;
7142;SDS011;3613;48.902;9.204;2023-08-06T11:05:06;0.60;;;0.60;;
7142;SDS011;3613;48.902;9.204;2023-08-06T11:07:32;0.90;;;0.90;;
7142;SDS011;3613;48.902;9.204;2023-08-06T11:10:05;1.03;;;1.00;;
7142;SDS011;3613;48.902;9.204;2023-08-06T11:12:32;0.90;;;0.90;;
7142;SDS011;3613;48.902;9.204;2023-08-06T11:14:58;1.13;;;1.00;;
7142;SDS011;3613;48.902;9.204;2023-08-06T11:17:24;0.97;;;0.90;;
7142;SDS011;3613;48.902;9.204;2023-08-06T11:19:51;2.03;;;1.10;;
7142;SDS011;3613;48.902;9.204;2023-08-06T11:22:20;1.27;;;1.10;;
7142;SDS011;3613;48.902;9.204;2023-08-06T11:24:46;1.60;;;1.17;;
7142;SDS011;3613;48.902;9.204;2023-08-06T11:27:13;1.67;;;1.10;;
7142;SDS011;3613;48.902;9.204;2023-08-06T11:29:40;1.53;;;1.17;;
7142;SDS011;3613;48.902;9.204;2023-08-06T11:32:06;1.17;;;1.00;;
7142;SDS011;3613;48.902;9.204;2023-08-06T11:34:33;2.53;;;1.00;;
7142;SDS011;3613;48.902;9.204;2023-08-06T11:36:59;2.07;;;1.10;;
7142;SDS011;3613;48.902;9.204;2023-08-06T11:39:24;1.00;;;1.00;;
7142;SDS011;3613;48.902;9.204;2023-08-06T11:41:53;2.10;;;1.07;;
7142;SDS011;3613;48.902;9.204;2023-08-06T11:44:19;2.07;;;1.30;;
7142;SDS011;3613;48.902;9.204;2023-08-06T11:46:53;2.50;;;1.13;;
7142;SDS011;3613;48.902;9.204;2023-08-06T11:49:21;2.23;;;1.37;;
7142;SDS011;3613;48.902;9.204;2023-08-06T11:52:09;2.00;;;1.43;;
7142;SDS011;3613;48.902;9.204;2023-08-06T11:54:36;1.70;;;1.30;;
7142;SDS011;3613;48.902;9.204;2023-08-06T11:57:05;1.77;;;1.40;;
7142;SDS011;3613;48.902;9.204;2023-08-06T11:59:31;1.57;;;1.47;;
7142;SDS011;3613;48.902;9.204;2023-08-06T12:01:57;1.40;;;1.30;;
7142;SDS011;3613;48.902;9.204;2023-08-06T12:04:23;2.40;;;1.60;;
7142;SDS011;3613;48.902;9.204;2023-08-06T12:06:51;3.10;;;1.60;;
7142;SDS011;3613;48.902;9.204;2023-08-06T12:09:18;4.13;;;1.77;;
7142;SDS011;3613;48.902;9.204;2023-08-06T12:11:44;2.93;;;2.13;;
7142;SDS011;3613;48.902;9.204;2023-08-06T12:14:10;2.80;;;1.73;;
7142;SDS011;3613;48.902;9.204;2023-08-06T12:16:36;3.00;;;2.00;;
7142;SDS011;3613;48.902;9.204;2023-08-06T12:19:04;4.40;;;1.97;;
7142;SDS011;3613;48.902;9.204;2023-08-06T12:21:33;2.90;;;2.17;;
7142;SDS011;3613;48.902;9.204;2023-08-06T12:23:58;4.03;;;2.10;;
7142;SDS011;3613;48.902;9.204;2023-08-06T12:26:24;3.20;;;2.47;;
7142;SDS011;3613;48.902;9.204;2023-08-06T12:28:50;3.53;;;2.53;;
7142;SDS011;3613;48.902;9.204;2023-08-06T12:31:20;3.77;;;2.43;;
7142;SDS011;3613;48.902;9.204;2023-08-06T12:33:46;6.00;;;2.70;;
7142;SDS011;3613;48.902;9.204;2023-08-06T12:36:14;3.40;;;2.70;;
7142;SDS011;3613;48.902;9.204;2023-08-06T12:38:39;3.53;;;3.00;;
7142;SDS011;3613;48.902;9.204;2023-08-06T12:41:08;4.23;;;2.90;;
7142;SDS011;3613;48.902;9.204;2023-08-06T12:43:34;4.80;;;2.80;;
7142;SDS011;3613;48.902;9.204;2023-08-06T12:46:00;4.03;;;2.60;;
7142;SDS011;3613;48.902;9.204;2023-08-06T12:48:28;6.63;;;2.83;;
7142;SDS011;3613;48.902;9.204;2023-08-06T12:50:56;5.70;;;2.57;;
7142;SDS011;3613;48.902;9.204;2023-08-06T12:53:22;4.47;;;2.90;;
7142;SDS011;3613;48.902;9.204;2023-08-06T12:55:48;4.50;;;2.50;;
7142;SDS011;3613;48.902;9.204;2023-08-06T12:58:16;5.00;;;3.23;;
7142;SDS011;3613;48.902;9.204;2023-08-06T13:00:42;3.97;;;2.30;;
7142;SDS011;3613;48.902;9.204;2023-08-06T13:03:08;2.53;;;1.90;;
7142;SDS011;3613;48.902;9.204;2023-08-06T13:05:34;3.67;;;1.90;;
7142;SDS011;3613;48.902;9.204;2023-08-06T13:08:04;2.20;;;1.90;;
7142;SDS011;3613;48.902;9.204;2023-08-06T13:10:32;3.67;;;2.10;;
7142;SDS011;3613;48.902;9.204;2023-08-06T13:12:58;3.10;;;1.67;;
7142;SDS011;3613;48.902;9.204;2023-08-06T13:15:24;2.10;;;1.83;;
7142;SDS011;3613;48.902;9.204;2023-08-06T13:17:50;2.23;;;1.70;;
7142;SDS011;3613;48.902;9.204;2023-08-06T13:20:18;3.27;;;1.80;;
7142;SDS011;3613;48.902;9.204;2023-08-06T13:22:44;2.37;;;1.67;;
7142;SDS011;3613;48.902;9.204;2023-08-06T13:25:11;3.80;;;1.90;;
7142;SDS011;3613;48.902;9.204;2023-08-06T13:27:39;1.67;;;1.57;;
7142;SDS011;3613;48.902;9.204;2023-08-06T13:30:09;2.07;;;1.43;;
7142;SDS011;3613;48.902;9.204;2023-08-06T13:32:35;2.83;;;1.50;;
7142;SDS011;3613;48.902;9.204;2023-08-06T13:35:04;2.00;;;1.10;;
7142;SDS011;3613;48.902;9.204;2023-08-06T13:37:30;1.40;;;1.20;;
7142;SDS011;3613;48.902;9.204;2023-08-06T13:39:56;1.57;;;1.20;;
7142;SDS011;3613;48.902;9.204;2023-08-06T13:42:22;1.20;;;1.10;;
7142;SDS011;3613;48.902;9.204;2023-08-06T13:44:47;1.00;;;1.00;;
7142;SDS011;3613;48.902;9.204;2023-08-06T13:47:13;1.40;;;1.17;;
7142;SDS011;3613;48.902;9.204;2023-08-06T13:49:39;3.37;;;1.10;;
7142;SDS011;3613;48.902;9.204;2023-08-06T13:52:05;1.37;;;1.13;;
7142;SDS011;3613;48.902;9.204;2023-08-06T13:54:34;1.23;;;1.00;;
7142;SDS011;3613;48.902;9.204;2023-08-06T13:56:59;2.13;;;1.10;;
7142;SDS011;3613;48.902;9.204;2023-08-06T13:59:25;1.40;;;0.93;;
7142;SDS011;3613;48.902;9.204;2023-08-06T14:01:51;1.53;;;1.10;;
7142;SDS011;3613;48.902;9.204;2023-08-06T14:04:18;1.53;;;1.00;;
7142;SDS011;3613;48.902;9.204;2023-08-06T14:06:45;2.47;;;1.00;;
7142;SDS011;3613;48.902;9.204;2023-08-06T14:09:11;1.20;;;0.90;;
7142;SDS011;3613;48.902;9.204;2023-08-06T14:11:39;2.70;;;1.20;;
7142;SDS011;3613;48.902;9.204;2023-08-06T14:14:05;3.77;;;1.10;;
7142;SDS011;3613;48.902;9.204;2023-08-06T14:16:32;1.57;;;1.37;;
7142;SDS011;3613;48.902;9.204;2023-08-06T14:18:58;2.53;;;1.30;;
7142;SDS011;3613;48.902;9.204;2023-08-06T14:21:24;1.10;;;1.00;;
7142;SDS011;3613;48.902;9.204;2023-08-06T14:23:50;1.40;;;1.30;;
7142;SDS011;3613;48.902;9.204;2023-08-06T14:26:16;1.83;;;1.50;;
7142;SDS011;3613;48.902;9.204;2023-08-06T14:28:42;2.57;;;1.53;;
7142;SDS011;3613;48.902;9.204;2023-08-06T14:31:08;2.20;;;1.50;;
7142;SDS011;3613;48.902;9.204;2023-08-06T14:33:38;3.00;;;1.90;;
7142;SDS011;3613;48.902;9.204;2023-08-06T14:36:09;1.70;;;1.60;;
7142;SDS011;3613;48.902;9.204;2023-08-06T14:38:39;3.90;;;1.80;;
7142;SDS011;3613;48.902;9.204;2023-08-06T14:41:07;5.33;;;2.40;;
7142;SDS011;3613;48.902;9.204;2023-08-06T14:43:35;2.20;;;1.57;;
7142;SDS011;3613;48.902;9.204;2023-08-06T14:46:01;3.63;;;1.70;;
7142;SDS011;3613;48.902;9.204;2023-08-06T14:48:30;4.73;;;2.13;;
7142;SDS011;3613;48.902;9.204;2023-08-06T14:50:56;3.13;;;1.73;;
7142;SDS011;3613;48.902;9.204;2023-08-06T14:53:24;3.57;;;2.30;;
7142;SDS011;3613;48.902;9.204;2023-08-06T14:55:50;2.23;;;1.70;;
7142;SDS011;3613;48.902;9.204;2023-08-06T14:58:19;2.53;;;2.17;;
7142;SDS011;3613;48.902;9.204;2023-08-06T15:00:45;2.90;;;1.83;;
7142;SDS011;3613;48.902;9.204;2023-08-06T15:03:13;4.23;;;2.00;;
7142;SDS011;3613;48.902;9.204;2023-08-06T15:05:42;3.67;;;1.70;;
7142;SDS011;3613;48.902;9.204;2023-08-06T15:08:08;2.00;;;1.57;;
7142;SDS011;3613;48.902;9.204;2023-08-06T15:10:34;3.87;;;1.83;;
7142;SDS011;3613;48.902;9.204;2023-08-06T15:13:00;6.30;;;3.57;;
7142;SDS011;3613;48.902;9.204;2023-08-06T15:15:28;3.90;;;1.70;;
7142;SDS011;3613;48.902;9.204;2023-08-06T15:17:54;3.37;;;1.70;;
7142;SDS011;3613;48.902;9.204;2023-08-06T15:20:21;2.27;;;1.43;;
7142;SDS011;3613;48.902;9.204;2023-08-06T15:22:51;2.07;;;1.30;;
7142;SDS011;3613;48.902;9.204;2023-08-06T15:25:16;2.33;;;1.60;;